sensor_id;sensor_type;location;lat;lon;timestamp;temperature;humidity
26575;DHT22;67165;50.256;10.978;2024-01-15T00:00:20;-2.10;98.00
26575;DHT22;67165;50.256;10.978;2024-01-15T00:02:47;-2.00;98.00
26575;DHT22;67165;50.256;10.978;2024-01-15T00:05:13;-2.00;98.00
26575;DHT22;67165;50.256;10.978;2024-01-15T00:07:38;-2.00;98.00
26575;DHT22;67165;50.256;10.978;2024-01-15T00:10:04;-2.10;98.00
26575;DHT22;67165;50.256;10.978;2024-01-15T00:12:31;-2.10;98.00
26575;DHT22;67165;50.256;10.978;2024-01-15T00:14:57;-2.10;98.00
26575;DHT22;67165;50.256;10.978;2024-01-15T00:17:22;-2.20;98.00
26575;DHT22;67165;50.256;10.978;2024-01-15T00:19:48;-2.20;98.00
26575;DHT22;67165;50.256;10.978;2024-01-15T00:22:14;-2.20;98.00
26575;DHT22;67165;50.256;10.978;2024-01-15T00:24:39;-2.20;98.00
26575;DHT22;67165;50.256;10.978;2024-01-15T00:27:05;-2.20;98.00
26575;DHT22;67165;50.256;10.978;2024-01-15T00:29:31;-2.20;98.00
26575;DHT22;67165;50.256;10.978;2024-01-15T00:31:56;-2.20;98.00
26575;DHT22;67165;50.256;10.978;2024-01-15T00:34:22;-2.20;98.00
26575;DHT22;67165;50.256;10.978;2024-01-15T00:36:48;-2.30;98.00
26575;DHT22;67165;50.256;10.978;2024-01-15T00:39:14;-2.20;98.00
26575;DHT22;67165;50.256;10.978;2024-01-15T00:41:39;-2.20;98.00
26575;DHT22;67165;50.256;10.978;2024-01-15T00:44:05;-2.20;98.00
26575;DHT22;67165;50.256;10.978;2024-01-15T00:46:31;-2.20;98.00
26575;DHT22;67165;50.256;10.978;2024-01-15T00:48:56;-2.20;98.00
26575;DHT22;67165;50.256;10.978;2024-01-15T00:51:22;-2.30;98.00
26575;DHT22;67165;50.256;10.978;2024-01-15T00:53:48;-2.30;98.00
26575;DHT22;67165;50.256;10.978;2024-01-15T00:56:14;-2.20;98.00
26575;DHT22;67165;50.256;10.978;2024-01-15T00:58:40;-2.20;98.00
26575;DHT22;67165;50.256;10.978;2024-01-15T01:01:05;-2.20;98.00
26575;DHT22;67165;50.256;10.978;2024-01-15T01:03:31;-2.20;98.00
26575;DHT22;67165;50.256;10.978;2024-01-15T01:05:57;-2.20;98.00
26575;DHT22;67165;50.256;10.978;2024-01-15T01:08:22;-2.20;98.00
26575;DHT22;67165;50.256;10.978;2024-01-15T01:10:48;-2.10;98.00
26575;DHT22;67165;50.256;10.978;2024-01-15T01:13:14;-2.10;98.00
26575;DHT22;67165;50.256;10.978;2024-01-15T01:15:40;-2.00;98.00
26575;DHT22;67165;50.256;10.978;2024-01-15T01:18:05;-2.00;98.00
26575;DHT22;67165;50.256;10.978;2024-01-15T01:20:31;-2.10;98.00
26575;DHT22;67165;50.256;10.978;2024-01-15T01:22:57;-2.20;98.00
26575;DHT22;67165;50.256;10.978;2024-01-15T01:25:22;-2.20;98.00
26575;DHT22;67165;50.256;10.978;2024-01-15T01:27:48;-2.20;98.00
26575;DHT22;67165;50.256;10.978;2024-01-15T01:30:14;-2.20;98.00
26575;DHT22;67165;50.256;10.978;2024-01-15T01:32:40;-2.10;98.00
26575;DHT22;67165;50.256;10.978;2024-01-15T01:35:06;-2.10;98.00
26575;DHT22;67165;50.256;10.978;2024-01-15T01:37:32;-2.20;98.00
26575;DHT22;67165;50.256;10.978;2024-01-15T01:39:59;-2.30;98.00
26575;DHT22;67165;50.256;10.978;2024-01-15T01:42:25;-2.20;98.00
26575;DHT22;67165;50.256;10.978;2024-01-15T01:44:51;-2.20;98.00
26575;DHT22;67165;50.256;10.978;2024-01-15T01:47:17;-2.20;98.00
26575;DHT22;67165;50.256;10.978;2024-01-15T01:49:43;-2.20;98.00
26575;DHT22;67165;50.256;10.978;2024-01-15T01:52:09;-2.20;98.00
26575;DHT22;67165;50.256;10.978;2024-01-15T01:54:35;-2.20;98.00
26575;DHT22;67165;50.256;10.978;2024-01-15T01:57:03;-2.00;98.00
26575;DHT22;67165;50.256;10.978;2024-01-15T01:59:30;-1.90;98.00
26575;DHT22;67165;50.256;10.978;2024-01-15T02:01:57;-1.90;98.00
26575;DHT22;67165;50.256;10.978;2024-01-15T02:04:24;-2.00;98.00
26575;DHT22;67165;50.256;10.978;2024-01-15T02:06:51;-2.00;98.00
26575;DHT22;67165;50.256;10.978;2024-01-15T02:09:20;-2.10;98.00
26575;DHT22;67165;50.256;10.978;2024-01-15T02:11:49;-2.10;98.00
26575;DHT22;67165;50.256;10.978;2024-01-15T02:14:15;-2.10;98.00
26575;DHT22;67165;50.256;10.978;2024-01-15T02:16:41;-2.00;98.00
26575;DHT22;67165;50.256;10.978;2024-01-15T02:19:07;-2.00;98.00
26575;DHT22;67165;50.256;10.978;2024-01-15T02:21:33;-2.00;98.00
26575;DHT22;67165;50.256;10.978;2024-01-15T02:23:59;-2.00;98.00
26575;DHT22;67165;50.256;10.978;2024-01-15T02:26:25;-2.10;98.00
26575;DHT22;67165;50.256;10.978;2024-01-15T02:28:51;-2.10;98.00
26575;DHT22;67165;50.256;10.978;2024-01-15T02:31:17;-2.10;98.00
26575;DHT22;67165;50.256;10.978;2024-01-15T02:33:43;-2.00;98.00
26575;DHT22;67165;50.256;10.978;2024-01-15T02:36:11;-1.90;98.00
26575;DHT22;67165;50.256;10.978;2024-01-15T02:38:37;-2.00;98.00
26575;DHT22;67165;50.256;10.978;2024-01-15T02:41:03;-2.00;98.00
26575;DHT22;67165;50.256;10.978;2024-01-15T02:43:29;-2.00;98.00
26575;DHT22;67165;50.256;10.978;2024-01-15T02:45:55;-2.00;98.00
26575;DHT22;67165;50.256;10.978;2024-01-15T02:48:21;-2.10;98.00
26575;DHT22;67165;50.256;10.978;2024-01-15T02:50:46;-2.20;98.00
26575;DHT22;67165;50.256;10.978;2024-01-15T02:53:12;-2.10;98.00
26575;DHT22;67165;50.256;10.978;2024-01-15T02:55:38;-2.20;98.00
26575;DHT22;67165;50.256;10.978;2024-01-15T02:58:04;-2.20;98.00
26575;DHT22;67165;50.256;10.978;2024-01-15T03:00:30;-2.10;98.00
26575;DHT22;67165;50.256;10.978;2024-01-15T03:02:56;-2.10;98.00
26575;DHT22;67165;50.256;10.978;2024-01-15T03:05:22;-2.10;98.00
26575;DHT22;67165;50.256;10.978;2024-01-15T03:07:48;-2.00;98.00
26575;DHT22;67165;50.256;10.978;2024-01-15T03:10:13;-2.00;98.00
26575;DHT22;67165;50.256;10.978;2024-01-15T03:12:39;-2.00;98.00
26575;DHT22;67165;50.256;10.978;2024-01-15T03:15:05;-2.10;98.00
26575;DHT22;67165;50.256;10.978;2024-01-15T03:17:31;-2.20;98.00
26575;DHT22;67165;50.256;10.978;2024-01-15T03:19:56;-2.10;98.00
26575;DHT22;67165;50.256;10.978;2024-01-15T03:22:22;-2.10;98.00
26575;DHT22;67165;50.256;10.978;2024-01-15T03:24:48;-2.10;98.00
26575;DHT22;67165;50.256;10.978;2024-01-15T03:27:14;-2.20;98.00
26575;DHT22;67165;50.256;10.978;2024-01-15T03:29:40;-2.10;98.00
26575;DHT22;67165;50.256;10.978;2024-01-15T03:32:06;-2.00;98.00
26575;DHT22;67165;50.256;10.978;2024-01-15T03:34:32;-2.10;98.00
26575;DHT22;67165;50.256;10.978;2024-01-15T03:36:58;-2.10;98.00
26575;DHT22;67165;50.256;10.978;2024-01-15T03:39:24;-2.10;98.00
26575;DHT22;67165;50.256;10.978;2024-01-15T03:41:50;-2.10;98.00
26575;DHT22;67165;50.256;10.978;2024-01-15T03:44:16;-2.00;98.00
26575;DHT22;67165;50.256;10.978;2024-01-15T03:46:42;-2.00;98.00
26575;DHT22;67165;50.256;10.978;2024-01-15T03:49:07;-2.00;98.00
26575;DHT22;67165;50.256;10.978;2024-01-15T03:51:33;-2.00;98.00
26575;DHT22;67165;50.256;10.978;2024-01-15T03:53:59;-2.00;98.00
26575;DHT22;67165;50.256;10.978;2024-01-15T03:56:25;-2.00;98.00
26575;DHT22;67165;50.256;10.978;2024-01-15T03:58:50;-2.00;98.00
26575;DHT22;67165;50.256;10.978;2024-01-15T04:01:16;-1.90;98.00
26575;DHT22;67165;50.256;10.978;2024-01-15T04:03:42;-2.00;98.00
26575;DHT22;67165;50.256;10.978;2024-01-15T04:06:08;-2.00;98.00
26575;DHT22;67165;50.256;10.978;2024-01-15T04:08:33;-2.00;98.00
26575;DHT22;67165;50.256;10.978;2024-01-15T04:10:59;-2.00;98.00
26575;DHT22;67165;50.256;10.978;2024-01-15T04:13:25;-2.00;98.00
26575;DHT22;67165;50.256;10.978;2024-01-15T04:15:51;-2.00;98.00
26575;DHT22;67165;50.256;10.978;2024-01-15T04:18:16;-2.00;98.00
26575;DHT22;67165;50.256;10.978;2024-01-15T04:20:45;-2.00;98.00
26575;DHT22;67165;50.256;10.978;2024-01-15T04:23:10;-2.00;98.00
26575;DHT22;67165;50.256;10.978;2024-01-15T04:25:36;-2.00;98.00
26575;DHT22;67165;50.256;10.978;2024-01-15T04:28:02;-2.00;98.00
26575;DHT22;67165;50.256;10.978;2024-01-15T04:30:28;-2.00;98.00
26575;DHT22;67165;50.256;10.978;2024-01-15T04:32:53;-2.00;98.00
26575;DHT22;67165;50.256;10.978;2024-01-15T04:35:19;-2.00;98.00
26575;DHT22;67165;50.256;10.978;2024-01-15T04:37:45;-2.00;98.00
26575;DHT22;67165;50.256;10.978;2024-01-15T04:40:11;-1.90;98.00
26575;DHT22;67165;50.256;10.978;2024-01-15T04:42:37;-1.90;98.00
26575;DHT22;67165;50.256;10.978;2024-01-15T04:45:03;-1.90;98.00
26575;DHT22;67165;50.256;10.978;2024-01-15T04:47:29;-1.90;98.00
26575;DHT22;67165;50.256;10.978;2024-01-15T04:49:54;-1.90;98.00
26575;DHT22;67165;50.256;10.978;2024-01-15T04:52:20;-1.80;98.00
26575;DHT22;67165;50.256;10.978;2024-01-15T04:54:46;-1.90;98.00
26575;DHT22;67165;50.256;10.978;2024-01-15T04:57:12;-1.90;98.00
26575;DHT22;67165;50.256;10.978;2024-01-15T04:59:37;-1.90;98.00
26575;DHT22;67165;50.256;10.978;2024-01-15T05:02:03;-1.90;98.00
26575;DHT22;67165;50.256;10.978;2024-01-15T05:04:29;-1.90;98.00
26575;DHT22;67165;50.256;10.978;2024-01-15T05:06:55;-1.90;98.00
26575;DHT22;67165;50.256;10.978;2024-01-15T05:09:21;-1.90;98.00
26575;DHT22;67165;50.256;10.978;2024-01-15T05:11:46;-1.90;98.00
26575;DHT22;67165;50.256;10.978;2024-01-15T05:14:12;-1.80;98.00
26575;DHT22;67165;50.256;10.978;2024-01-15T05:16:40;-1.90;98.00
26575;DHT22;67165;50.256;10.978;2024-01-15T05:19:11;-1.90;98.00
26575;DHT22;67165;50.256;10.978;2024-01-15T05:21:37;-1.80;98.00
26575;DHT22;67165;50.256;10.978;2024-01-15T05:24:03;-1.90;98.00
26575;DHT22;67165;50.256;10.978;2024-01-15T05:26:29;-1.90;98.00
26575;DHT22;67165;50.256;10.978;2024-01-15T05:28:54;-1.90;98.00
26575;DHT22;67165;50.256;10.978;2024-01-15T05:31:20;-1.90;98.00
26575;DHT22;67165;50.256;10.978;2024-01-15T05:33:46;-1.80;98.00
26575;DHT22;67165;50.256;10.978;2024-01-15T05:36:11;-1.80;98.00
26575;DHT22;67165;50.256;10.978;2024-01-15T05:38:37;-1.80;98.00
26575;DHT22;67165;50.256;10.978;2024-01-15T05:41:03;-1.90;98.00
26575;DHT22;67165;50.256;10.978;2024-01-15T05:43:29;-1.90;98.00
26575;DHT22;67165;50.256;10.978;2024-01-15T05:45:54;-1.80;98.00
26575;DHT22;67165;50.256;10.978;2024-01-15T05:48:20;-1.90;98.00
26575;DHT22;67165;50.256;10.978;2024-01-15T05:50:46;-1.90;98.00
26575;DHT22;67165;50.256;10.978;2024-01-15T05:53:11;-1.90;98.00
26575;DHT22;67165;50.256;10.978;2024-01-15T05:55:37;-1.80;98.00
26575;DHT22;67165;50.256;10.978;2024-01-15T05:58:05;-1.80;98.00
26575;DHT22;67165;50.256;10.978;2024-01-15T06:00:31;-1.80;98.00
26575;DHT22;67165;50.256;10.978;2024-01-15T06:03:00;-1.90;98.00
26575;DHT22;67165;50.256;10.978;2024-01-15T06:05:25;-1.80;98.00
26575;DHT22;67165;50.256;10.978;2024-01-15T06:07:51;-1.80;98.00
26575;DHT22;67165;50.256;10.978;2024-01-15T06:10:17;-1.70;98.00
26575;DHT22;67165;50.256;10.978;2024-01-15T06:12:43;-1.70;98.00
26575;DHT22;67165;50.256;10.978;2024-01-15T06:15:09;-1.70;98.00
26575;DHT22;67165;50.256;10.978;2024-01-15T06:17:36;-1.60;98.00
26575;DHT22;67165;50.256;10.978;2024-01-15T06:20:03;-1.70;98.00
26575;DHT22;67165;50.256;10.978;2024-01-15T06:22:29;-1.70;98.00
26575;DHT22;67165;50.256;10.978;2024-01-15T06:24:54;-1.70;98.00
26575;DHT22;67165;50.256;10.978;2024-01-15T06:27:21;-1.70;98.00
26575;DHT22;67165;50.256;10.978;2024-01-15T06:29:47;-1.70;98.00
26575;DHT22;67165;50.256;10.978;2024-01-15T06:32:13;-1.70;98.00
26575;DHT22;67165;50.256;10.978;2024-01-15T06:34:39;-1.70;98.00
26575;DHT22;67165;50.256;10.978;2024-01-15T06:37:05;-1.70;98.00
26575;DHT22;67165;50.256;10.978;2024-01-15T06:39:30;-1.60;98.00
26575;DHT22;67165;50.256;10.978;2024-01-15T06:41:56;-1.70;98.00
26575;DHT22;67165;50.256;10.978;2024-01-15T06:44:22;-1.70;98.00
26575;DHT22;67165;50.256;10.978;2024-01-15T06:46:48;-1.60;98.00
26575;DHT22;67165;50.256;10.978;2024-01-15T06:49:14;-1.60;98.00
26575;DHT22;67165;50.256;10.978;2024-01-15T06:51:40;-1.60;98.00
26575;DHT22;67165;50.256;10.978;2024-01-15T06:54:05;-1.70;98.00
26575;DHT22;67165;50.256;10.978;2024-01-15T06:56:32;-1.60;98.00
26575;DHT22;67165;50.256;10.978;2024-01-15T06:58:58;-1.70;98.00
26575;DHT22;67165;50.256;10.978;2024-01-15T07:01:24;-1.70;98.00
26575;DHT22;67165;50.256;10.978;2024-01-15T07:03:49;-1.80;98.00
26575;DHT22;67165;50.256;10.978;2024-01-15T07:06:15;-1.80;98.00
26575;DHT22;67165;50.256;10.978;2024-01-15T07:08:42;-1.80;98.00
26575;DHT22;67165;50.256;10.978;2024-01-15T07:11:08;-1.90;98.00
26575;DHT22;67165;50.256;10.978;2024-01-15T07:13:36;-1.90;98.00
26575;DHT22;67165;50.256;10.978;2024-01-15T07:16:02;-1.90;98.00
26575;DHT22;67165;50.256;10.978;2024-01-15T07:18:27;-1.80;98.00
26575;DHT22;67165;50.256;10.978;2024-01-15T07:20:53;-1.80;98.00
26575;DHT22;67165;50.256;10.978;2024-01-15T07:23:19;-1.80;98.00
26575;DHT22;67165;50.256;10.978;2024-01-15T07:25:45;-1.70;98.00
26575;DHT22;67165;50.256;10.978;2024-01-15T07:28:11;-1.70;98.00
26575;DHT22;67165;50.256;10.978;2024-01-15T07:30:37;-1.70;98.00
26575;DHT22;67165;50.256;10.978;2024-01-15T07:33:05;-1.70;98.00
26575;DHT22;67165;50.256;10.978;2024-01-15T07:35:31;-1.60;98.00
26575;DHT22;67165;50.256;10.978;2024-01-15T07:37:57;-1.60;98.00
26575;DHT22;67165;50.256;10.978;2024-01-15T07:40:23;-1.60;98.00
26575;DHT22;67165;50.256;10.978;2024-01-15T07:42:50;-1.60;98.00
26575;DHT22;67165;50.256;10.978;2024-01-15T07:45:16;-1.60;98.00
26575;DHT22;67165;50.256;10.978;2024-01-15T07:47:42;-1.40;98.00
26575;DHT22;67165;50.256;10.978;2024-01-15T07:50:08;-1.40;98.00
26575;DHT22;67165;50.256;10.978;2024-01-15T07:52:34;-1.30;98.00
26575;DHT22;67165;50.256;10.978;2024-01-15T07:55:00;-1.30;98.00
26575;DHT22;67165;50.256;10.978;2024-01-15T07:57:26;-1.30;98.00
26575;DHT22;67165;50.256;10.978;2024-01-15T07:59:52;-1.30;98.00
26575;DHT22;67165;50.256;10.978;2024-01-15T08:02:17;-1.30;98.00
26575;DHT22;67165;50.256;10.978;2024-01-15T08:04:43;-1.30;98.00
26575;DHT22;67165;50.256;10.978;2024-01-15T08:07:09;-1.30;98.00
26575;DHT22;67165;50.256;10.978;2024-01-15T08:09:35;-1.40;98.00
26575;DHT22;67165;50.256;10.978;2024-01-15T08:12:01;-1.40;98.00
26575;DHT22;67165;50.256;10.978;2024-01-15T08:14:27;-1.40;98.00
26575;DHT22;67165;50.256;10.978;2024-01-15T08:16:52;-1.30;98.00
26575;DHT22;67165;50.256;10.978;2024-01-15T08:19:18;-1.30;98.00
26575;DHT22;67165;50.256;10.978;2024-01-15T08:21:45;-1.30;98.00
26575;DHT22;67165;50.256;10.978;2024-01-15T08:24:11;-1.20;98.00
26575;DHT22;67165;50.256;10.978;2024-01-15T08:26:37;-1.20;98.00
26575;DHT22;67165;50.256;10.978;2024-01-15T08:29:03;-1.10;98.00
26575;DHT22;67165;50.256;10.978;2024-01-15T08:31:29;-1.00;98.00
26575;DHT22;67165;50.256;10.978;2024-01-15T08:33:54;-1.00;98.00
26575;DHT22;67165;50.256;10.978;2024-01-15T08:36:21;-1.10;98.00
26575;DHT22;67165;50.256;10.978;2024-01-15T08:38:47;-1.00;98.00
26575;DHT22;67165;50.256;10.978;2024-01-15T08:41:13;-0.90;98.00
26575;DHT22;67165;50.256;10.978;2024-01-15T08:43:39;-0.90;98.00
26575;DHT22;67165;50.256;10.978;2024-01-15T08:46:05;-0.90;98.00
26575;DHT22;67165;50.256;10.978;2024-01-15T08:48:31;-0.80;98.00
26575;DHT22;67165;50.256;10.978;2024-01-15T08:50:57;-0.70;98.00
26575;DHT22;67165;50.256;10.978;2024-01-15T08:53:22;-0.70;98.00
26575;DHT22;67165;50.256;10.978;2024-01-15T08:55:48;-0.70;98.00
26575;DHT22;67165;50.256;10.978;2024-01-15T08:58:15;-0.70;98.00
26575;DHT22;67165;50.256;10.978;2024-01-15T09:00:41;-0.60;98.00
26575;DHT22;67165;50.256;10.978;2024-01-15T09:03:06;-0.60;98.00
26575;DHT22;67165;50.256;10.978;2024-01-15T09:05:34;-0.60;98.00
26575;DHT22;67165;50.256;10.978;2024-01-15T09:07:59;-0.60;98.00
26575;DHT22;67165;50.256;10.978;2024-01-15T09:10:25;-0.60;98.00
26575;DHT22;67165;50.256;10.978;2024-01-15T09:12:51;-0.60;98.00
26575;DHT22;67165;50.256;10.978;2024-01-15T09:15:17;-0.60;98.00
26575;DHT22;67165;50.256;10.978;2024-01-15T09:17:42;-0.40;98.00
26575;DHT22;67165;50.256;10.978;2024-01-15T09:20:10;-0.40;98.00
26575;DHT22;67165;50.256;10.978;2024-01-15T09:22:38;-0.30;98.00
26575;DHT22;67165;50.256;10.978;2024-01-15T09:25:08;-0.30;98.00
26575;DHT22;67165;50.256;10.978;2024-01-15T09:27:37;-0.30;98.00
26575;DHT22;67165;50.256;10.978;2024-01-15T09:30:04;-0.30;98.00
26575;DHT22;67165;50.256;10.978;2024-01-15T09:32:30;-0.30;98.00
26575;DHT22;67165;50.256;10.978;2024-01-15T09:34:56;-0.40;98.00
26575;DHT22;67165;50.256;10.978;2024-01-15T09:37:22;-0.40;98.00
26575;DHT22;67165;50.256;10.978;2024-01-15T09:39:49;-0.40;98.00
26575;DHT22;67165;50.256;10.978;2024-01-15T09:42:16;-0.50;98.00
26575;DHT22;67165;50.256;10.978;2024-01-15T09:44:42;-0.40;98.00
26575;DHT22;67165;50.256;10.978;2024-01-15T09:47:08;-0.40;98.00
26575;DHT22;67165;50.256;10.978;2024-01-15T09:49:34;-0.40;98.00
26575;DHT22;67165;50.256;10.978;2024-01-15T09:52:01;-0.40;98.00
26575;DHT22;67165;50.256;10.978;2024-01-15T09:54:27;-0.30;98.00
26575;DHT22;67165;50.256;10.978;2024-01-15T09:56:54;-0.30;98.00
26575;DHT22;67165;50.256;10.978;2024-01-15T09:59:22;-0.20;98.00
26575;DHT22;67165;50.256;10.978;2024-01-15T10:01:50;-0.20;98.00
26575;DHT22;67165;50.256;10.978;2024-01-15T10:04:17;-0.10;98.00
26575;DHT22;67165;50.256;10.978;2024-01-15T10:06:45;-0.10;98.00
26575;DHT22;67165;50.256;10.978;2024-01-15T10:09:12;-0.10;98.00
26575;DHT22;67165;50.256;10.978;2024-01-15T10:11:44;-0.10;98.00
26575;DHT22;67165;50.256;10.978;2024-01-15T10:14:11;0.00;98.00
26575;DHT22;67165;50.256;10.978;2024-01-15T10:16:40;-0.10;98.00
26575;DHT22;67165;50.256;10.978;2024-01-15T10:19:07;0.00;98.00
26575;DHT22;67165;50.256;10.978;2024-01-15T10:21:33;0.10;98.00
26575;DHT22;67165;50.256;10.978;2024-01-15T10:24:02;0.20;98.00
26575;DHT22;67165;50.256;10.978;2024-01-15T10:26:28;0.30;98.00
26575;DHT22;67165;50.256;10.978;2024-01-15T10:28:55;0.40;98.00
26575;DHT22;67165;50.256;10.978;2024-01-15T10:31:20;0.50;98.00
26575;DHT22;67165;50.256;10.978;2024-01-15T10:33:50;0.70;98.00
26575;DHT22;67165;50.256;10.978;2024-01-15T10:36:16;0.70;98.00
26575;DHT22;67165;50.256;10.978;2024-01-15T10:38:46;0.60;98.00
26575;DHT22;67165;50.256;10.978;2024-01-15T10:41:13;0.50;98.00
26575;DHT22;67165;50.256;10.978;2024-01-15T10:43:39;0.50;98.00
26575;DHT22;67165;50.256;10.978;2024-01-15T10:46:08;0.50;98.00
26575;DHT22;67165;50.256;10.978;2024-01-15T10:48:35;0.60;98.00
26575;DHT22;67165;50.256;10.978;2024-01-15T10:51:01;0.60;98.00
26575;DHT22;67165;50.256;10.978;2024-01-15T10:53:38;0.60;98.00
26575;DHT22;67165;50.256;10.978;2024-01-15T10:56:06;0.50;98.00
26575;DHT22;67165;50.256;10.978;2024-01-15T10:58:35;0.50;98.00
26575;DHT22;67165;50.256;10.978;2024-01-15T11:01:04;0.40;98.00
26575;DHT22;67165;50.256;10.978;2024-01-15T11:03:30;0.40;98.00
26575;DHT22;67165;50.256;10.978;2024-01-15T11:05:56;0.60;98.00
26575;DHT22;67165;50.256;10.978;2024-01-15T11:08:25;0.50;98.00
26575;DHT22;67165;50.256;10.978;2024-01-15T11:10:52;0.40;98.00
26575;DHT22;67165;50.256;10.978;2024-01-15T11:15:58;0.40;98.00
26575;DHT22;67165;50.256;10.978;2024-01-15T11:19:17;0.20;98.00
26575;DHT22;67165;50.256;10.978;2024-01-15T11:23:57;0.20;98.00
26575;DHT22;67165;50.256;10.978;2024-01-15T11:29:07;0.20;98.00
26575;DHT22;67165;50.256;10.978;2024-01-15T11:34:05;0.20;98.00
26575;DHT22;67165;50.256;10.978;2024-01-15T11:41:58;0.20;98.00
26575;DHT22;67165;50.256;10.978;2024-01-15T11:44:26;0.20;98.00
26575;DHT22;67165;50.256;10.978;2024-01-15T11:49:58;0.20;98.00
26575;DHT22;67165;50.256;10.978;2024-01-15T11:52:25;0.20;98.00
26575;DHT22;67165;50.256;10.978;2024-01-15T11:57:28;0.10;98.00
26575;DHT22;67165;50.256;10.978;2024-01-15T11:59:56;0.20;98.00
26575;DHT22;67165;50.256;10.978;2024-01-15T12:02:24;0.30;98.00
26575;DHT22;67165;50.256;10.978;2024-01-15T12:04:54;0.30;98.00
26575;DHT22;67165;50.256;10.978;2024-01-15T12:07:20;0.30;98.00
26575;DHT22;67165;50.256;10.978;2024-01-15T12:09:46;0.40;98.00
26575;DHT22;67165;50.256;10.978;2024-01-15T12:12:22;0.40;98.00
26575;DHT22;67165;50.256;10.978;2024-01-15T12:14:52;0.40;98.00
26575;DHT22;67165;50.256;10.978;2024-01-15T12:17:18;0.30;98.00
26575;DHT22;67165;50.256;10.978;2024-01-15T12:19:43;0.30;98.00
26575;DHT22;67165;50.256;10.978;2024-01-15T12:22:09;0.20;98.00
26575;DHT22;67165;50.256;10.978;2024-01-15T12:24:35;0.20;98.00
26575;DHT22;67165;50.256;10.978;2024-01-15T12:27:01;0.20;98.00
26575;DHT22;67165;50.256;10.978;2024-01-15T12:29:27;0.20;98.00
26575;DHT22;67165;50.256;10.978;2024-01-15T12:31:53;0.30;98.00
26575;DHT22;67165;50.256;10.978;2024-01-15T12:34:19;0.30;98.00
26575;DHT22;67165;50.256;10.978;2024-01-15T12:36:48;0.20;98.00
26575;DHT22;67165;50.256;10.978;2024-01-15T12:39:14;0.30;98.00
26575;DHT22;67165;50.256;10.978;2024-01-15T12:41:41;0.20;98.00
26575;DHT22;67165;50.256;10.978;2024-01-15T12:44:07;0.30;98.00
26575;DHT22;67165;50.256;10.978;2024-01-15T12:46:33;0.20;98.00
26575;DHT22;67165;50.256;10.978;2024-01-15T12:48:59;0.20;98.00
26575;DHT22;67165;50.256;10.978;2024-01-15T12:51:25;0.20;98.00
26575;DHT22;67165;50.256;10.978;2024-01-15T12:53:51;0.30;98.00
26575;DHT22;67165;50.256;10.978;2024-01-15T12:56:17;0.30;98.00
26575;DHT22;67165;50.256;10.978;2024-01-15T12:58:43;0.40;98.00
26575;DHT22;67165;50.256;10.978;2024-01-15T13:01:09;0.50;98.00
26575;DHT22;67165;50.256;10.978;2024-01-15T13:03:35;0.60;98.00
26575;DHT22;67165;50.256;10.978;2024-01-15T13:06:01;0.60;98.00
26575;DHT22;67165;50.256;10.978;2024-01-15T13:08:27;0.60;98.00
26575;DHT22;67165;50.256;10.978;2024-01-15T13:10:55;0.60;98.00
26575;DHT22;67165;50.256;10.978;2024-01-15T13:13:22;0.70;98.00
26575;DHT22;67165;50.256;10.978;2024-01-15T13:15:48;0.70;98.00
26575;DHT22;67165;50.256;10.978;2024-01-15T13:18:14;0.60;98.00
26575;DHT22;67165;50.256;10.978;2024-01-15T13:20:40;0.60;98.00
26575;DHT22;67165;50.256;10.978;2024-01-15T13:23:05;0.60;98.00
26575;DHT22;67165;50.256;10.978;2024-01-15T13:25:31;0.60;98.00
26575;DHT22;67165;50.256;10.978;2024-01-15T13:27:59;0.70;98.00
26575;DHT22;67165;50.256;10.978;2024-01-15T13:30:25;0.80;98.00
26575;DHT22;67165;50.256;10.978;2024-01-15T13:32:51;0.80;98.00
26575;DHT22;67165;50.256;10.978;2024-01-15T13:35:17;0.80;98.00
26575;DHT22;67165;50.256;10.978;2024-01-15T13:37:42;0.90;98.00
26575;DHT22;67165;50.256;10.978;2024-01-15T13:40:08;0.80;98.00
26575;DHT22;67165;50.256;10.978;2024-01-15T13:42:35;0.80;98.00
26575;DHT22;67165;50.256;10.978;2024-01-15T13:45:05;0.70;98.00
26575;DHT22;67165;50.256;10.978;2024-01-15T13:47:32;0.70;98.00
26575;DHT22;67165;50.256;10.978;2024-01-15T13:49:58;0.60;98.00
26575;DHT22;67165;50.256;10.978;2024-01-15T13:52:24;0.60;98.00
26575;DHT22;67165;50.256;10.978;2024-01-15T13:54:50;0.50;98.00
26575;DHT22;67165;50.256;10.978;2024-01-15T13:57:17;0.50;98.00
26575;DHT22;67165;50.256;10.978;2024-01-15T13:59:42;0.50;98.00
26575;DHT22;67165;50.256;10.978;2024-01-15T14:02:08;0.50;98.00
26575;DHT22;67165;50.256;10.978;2024-01-15T14:04:35;0.50;98.00
26575;DHT22;67165;50.256;10.978;2024-01-15T14:07:00;0.40;98.00
26575;DHT22;67165;50.256;10.978;2024-01-15T14:09:26;0.50;98.00
26575;DHT22;67165;50.256;10.978;2024-01-15T14:11:52;0.50;98.00
26575;DHT22;67165;50.256;10.978;2024-01-15T14:14:18;0.40;98.00
26575;DHT22;67165;50.256;10.978;2024-01-15T14:16:44;0.50;98.00
26575;DHT22;67165;50.256;10.978;2024-01-15T14:19:09;0.50;98.00
26575;DHT22;67165;50.256;10.978;2024-01-15T14:21:35;0.50;98.00
26575;DHT22;67165;50.256;10.978;2024-01-15T14:24:01;0.50;98.00
26575;DHT22;67165;50.256;10.978;2024-01-15T14:26:28;0.50;98.00
26575;DHT22;67165;50.256;10.978;2024-01-15T14:28:54;0.40;98.00
26575;DHT22;67165;50.256;10.978;2024-01-15T14:31:20;0.20;98.00
26575;DHT22;67165;50.256;10.978;2024-01-15T14:33:46;0.20;98.00
26575;DHT22;67165;50.256;10.978;2024-01-15T14:36:12;0.20;98.00
26575;DHT22;67165;50.256;10.978;2024-01-15T14:38:37;0.20;98.00
26575;DHT22;67165;50.256;10.978;2024-01-15T14:41:03;0.20;98.00
26575;DHT22;67165;50.256;10.978;2024-01-15T14:43:29;0.30;98.00
26575;DHT22;67165;50.256;10.978;2024-01-15T14:45:56;0.20;98.00
26575;DHT22;67165;50.256;10.978;2024-01-15T14:48:22;0.20;98.00
26575;DHT22;67165;50.256;10.978;2024-01-15T14:50:48;0.20;98.00
26575;DHT22;67165;50.256;10.978;2024-01-15T14:53:16;0.20;98.00
26575;DHT22;67165;50.256;10.978;2024-01-15T14:55:43;0.20;98.00
26575;DHT22;67165;50.256;10.978;2024-01-15T14:58:08;0.20;98.00
26575;DHT22;67165;50.256;10.978;2024-01-15T15:00:34;0.20;98.00
26575;DHT22;67165;50.256;10.978;2024-01-15T15:03:00;0.20;98.00
26575;DHT22;67165;50.256;10.978;2024-01-15T15:05:26;0.20;98.00
26575;DHT22;67165;50.256;10.978;2024-01-15T15:07:52;0.20;98.00
26575;DHT22;67165;50.256;10.978;2024-01-15T15:10:17;0.10;98.00
26575;DHT22;67165;50.256;10.978;2024-01-15T15:12:43;0.20;98.00
26575;DHT22;67165;50.256;10.978;2024-01-15T15:15:09;0.10;98.00
26575;DHT22;67165;50.256;10.978;2024-01-15T15:17:37;0.20;98.00
26575;DHT22;67165;50.256;10.978;2024-01-15T15:20:04;0.20;98.00
26575;DHT22;67165;50.256;10.978;2024-01-15T15:22:31;0.20;98.00
26575;DHT22;67165;50.256;10.978;2024-01-15T15:24:56;0.20;98.00
26575;DHT22;67165;50.256;10.978;2024-01-15T15:27:22;0.20;98.00
26575;DHT22;67165;50.256;10.978;2024-01-15T15:29:48;0.10;98.00
26575;DHT22;67165;50.256;10.978;2024-01-15T15:32:15;0.20;98.00
26575;DHT22;67165;50.256;10.978;2024-01-15T15:34:41;0.20;98.00